Time;durP1;ratioP1;P1;durP2;ratioP2;P2;SDS_P1;SDS_P2;PMS_P1;PMS_P2;Temp;Humidity;BMP_temperature;BMP_pressure;BME280_temperature;BME280_humidity;BME280_pressure;Samples;Min_cycle;Max_cycle;Signal;HPM_P1;HPM_P2
2020/12/24 20:52:39;;;;;;;15.18;4.63;;;4.70;99.90;;;;;;4772323;27;10002022;-49
2020/12/24 20:55:04;;;;;;;18.67;5.45;;;4.80;99.90;;;;;;5107950;28;20486;-57
2020/12/24 20:57:30;;;;;;;15.30;4.97;;;4.90;99.90;;;;;;5114756;28;20027;-57
2020/12/24 20:59:55;;;;;;;14.45;5.10;;;4.90;99.90;;;;;;5125848;28;20375;-56
2020/12/24 21:02:21;;;;;;;16.80;5.93;;;4.90;99.90;;;;;;5112175;27;20024;-61
2020/12/24 21:04:46;;;;;;;19.17;5.00;;;5.00;99.90;;;;;;5106536;28;20085;-60
2020/12/24 21:07:13;;;;;;;16.40;5.10;;;5.00;99.90;;;;;;5104668;28;20069;-51
2020/12/24 21:09:39;;;;;;;15.65;4.85;;;5.00;99.90;;;;;;5103809;28;20024;-54
2020/12/24 21:12:05;;;;;;;16.40;5.10;;;5.00;99.90;;;;;;5104279;28;20080;-57
2020/12/24 21:14:31;;;;;;;21.58;6.95;;;5.00;99.90;;;;;;5103353;28;20028;-60
2020/12/24 21:16:56;;;;;;;17.98;5.03;;;5.00;99.90;;;;;;5123847;27;20152;-58
2020/12/24 21:19:22;;;;;;;17.70;5.45;;;5.00;99.90;;;;;;5123686;28;20076;-61
2020/12/24 21:21:53;;;;;;;14.73;4.50;;;4.90;99.90;;;;;;5127165;28;20027;-60
2020/12/24 21:24:19;;;;;;;17.63;4.90;;;4.90;99.90;;;;;;5127138;28;20470;-60
2020/12/24 21:26:47;;;;;;;18.05;4.85;;;4.80;99.90;;;;;;5125548;28;20028;-60
2020/12/24 21:29:13;;;;;;;15.18;4.90;;;4.90;99.90;;;;;;5125526;27;20035;-61
2020/12/24 21:31:39;;;;;;;14.95;5.68;;;4.80;99.90;;;;;;5127061;27;20028;-58
2020/12/24 21:34:05;;;;;;;16.98;5.30;;;4.70;99.90;;;;;;5127128;27;20505;-60
2020/12/24 21:36:30;;;;;;;13.90;4.95;;;4.60;99.90;;;;;;5125583;28;20027;-62
2020/12/24 21:38:57;;;;;;;15.40;5.00;;;4.60;99.90;;;;;;5126483;28;20159;-56
2020/12/24 21:41:23;;;;;;;14.32;4.75;;;4.50;99.90;;;;;;5126118;27;20027;-59
2020/12/24 21:43:48;;;;;;;13.77;4.57;;;4.60;99.90;;;;;;5117720;28;20398;-58
2020/12/24 21:46:19;;;;;;;15.38;4.97;;;4.70;99.90;;;;;;5117618;28;20068;-58
2020/12/24 21:48:46;;;;;;;15.10;5.15;;;4.70;99.90;;;;;;5112253;28;20081;-60
2020/12/24 21:51:11;;;;;;;14.30;5.00;;;4.70;99.90;;;;;;5108454;28;20032;-60
2020/12/24 21:53:37;;;;;;;15.90;5.60;;;4.80;99.90;;;;;;5120297;28;20388;-59
2020/12/24 21:56:03;;;;;;;15.75;5.40;;;4.80;99.90;;;;;;5126016;28;20034;-61
2020/12/24 21:58:29;;;;;;;16.77;5.68;;;4.90;99.90;;;;;;5125663;28;20039;-60
2020/12/24 22:00:54;;;;;;;84.15;52.53;;;4.90;99.90;;;;;;5124737;28;20027;-60
2020/12/24 22:03:20;;;;;;;23.00;10.90;;;5.00;99.90;;;;;;5115229;28;20028;-60
2020/12/24 22:05:46;;;;;;;21.20;9.60;;;5.00;99.90;;;;;;5091550;28;20703;-61
2020/12/24 22:08:12;;;;;;;19.35;6.68;;;5.00;99.90;;;;;;5111453;28;20023;-61
2020/12/24 22:10:37;;;;;;;16.67;5.85;;;5.00;99.90;;;;;;5112121;28;20028;-60
2020/12/24 22:13:04;;;;;;;17.15;6.20;;;5.00;99.90;;;;;;5110578;28;20118;-59
2020/12/24 22:15:31;;;;;;;17.05;6.38;;;4.90;99.90;;;;;;5110517;28;20118;-59
2020/12/24 22:17:58;;;;;;;17.20;6.90;;;4.90;99.90;;;;;;5111542;28;20030;-58
2020/12/24 22:20:24;;;;;;;18.33;6.22;;;4.80;99.90;;;;;;5110009;28;20062;-61
2020/12/24 22:22:49;;;;;;;16.67;6.43;;;4.90;99.90;;;;;;5110217;28;20052;-57
2020/12/24 22:25:15;;;;;;;23.10;7.30;;;4.80;99.90;;;;;;5110412;28;20031;-58
2020/12/24 22:27:40;;;;;;;17.98;6.22;;;4.80;99.90;;;;;;5107161;28;20032;-56
2020/12/24 22:30:06;;;;;;;18.77;5.85;;;4.80;99.90;;;;;;5099652;28;20073;-58
2020/12/24 22:32:32;;;;;;;20.08;7.40;;;4.80;99.90;;;;;;5099520;28;20029;-60
2020/12/24 22:34:57;;;;;;;18.95;6.65;;;4.80;99.90;;;;;;5090119;28;20024;-59
2020/12/24 22:37:23;;;;;;;18.65;6.45;;;4.70;99.90;;;;;;5090464;28;20135;-58
2020/12/24 22:39:49;;;;;;;19.10;6.82;;;4.70;99.90;;;;;;5090317;28;20031;-53
2020/12/24 22:42:15;;;;;;;22.98;8.35;;;4.70;99.90;;;;;;5091290;28;20032;-58
2020/12/24 22:44:41;;;;;;;19.10;6.05;;;4.80;99.90;;;;;;5091185;28;20039;-58
2020/12/24 22:47:06;;;;;;;17.85;7.22;;;4.80;99.90;;;;;;5089650;28;20020;-59
2020/12/24 22:49:32;;;;;;;19.92;6.80;;;4.80;99.90;;;;;;5091091;28;20024;-59
2020/12/24 22:52:07;;;;;;;17.38;6.15;;;4.80;99.90;;;;;;5090690;28;20380;-57
2020/12/24 22:54:33;;;;;;;17.98;7.03;;;4.80;99.90;;;;;;5111911;28;20030;-52
2020/12/24 22:57:01;;;;;;;20.48;6.07;;;4.80;99.90;;;;;;5111582;28;20032;-61
2020/12/24 22:59:26;;;;;;;19.23;6.47;;;4.80;99.90;;;;;;5109689;28;20055;-60
2020/12/24 23:01:52;;;;;;;19.42;6.93;;;4.70;99.90;;;;;;5109792;28;20093;-59
2020/12/24 23:04:18;;;;;;;18.92;6.72;;;4.70;99.90;;;;;;5111170;28;20462;-58
2020/12/24 23:09:12;;;;;;;21.35;7.20;;;4.50;99.90;;;;;;5066665;28;20057;-61
2020/12/24 23:11:37;;;;;;;20.17;7.70;;;4.50;99.90;;;;;;5067108;28;20036;-61
2020/12/24 23:14:04;;;;;;;19.70;6.45;;;4.50;99.90;;;;;;5066560;28;20068;-60
2020/12/24 23:16:30;;;;;;;19.33;6.85;;;4.50;99.90;;;;;;5069279;28;20399;-61
2020/12/24 23:18:57;;;;;;;18.90;6.55;;;4.50;99.90;;;;;;5068308;28;20037;-59
2020/12/24 23:21:23;;;;;;;23.42;8.27;;;4.50;99.90;;;;;;5068420;28;20059;-62
2020/12/24 23:23:49;;;;;;;18.38;6.50;;;4.50;99.90;;;;;;5064144;28;20052;-60
2020/12/24 23:26:15;;;;;;;18.70;6.43;;;4.40;99.90;;;;;;5051735;28;20032;-61
2020/12/24 23:28:43;;;;;;;18.67;6.45;;;4.50;99.90;;;;;;5047427;28;20028;-61
2020/12/24 23:31:10;;;;;;;20.42;7.22;;;4.50;99.90;;;;;;5048185;28;20021;-60
2020/12/24 23:33:37;;;;;;;17.40;6.07;;;4.40;99.90;;;;;;5048152;28;20033;-63
2020/12/24 23:36:04;;;;;;;15.93;5.38;;;4.40;99.90;;;;;;5060242;28;20468;-59
2020/12/24 23:38:30;;;;;;;18.17;6.10;;;4.50;99.90;;;;;;5067869;28;20025;-60
2020/12/24 23:40:56;;;;;;;17.08;6.00;;;4.50;99.90;;;;;;5067084;28;20036;-61
2020/12/24 23:43:21;;;;;;;18.48;5.63;;;4.40;99.90;;;;;;5066637;28;20107;-63
2020/12/24 23:45:47;;;;;;;17.58;6.50;;;4.40;99.90;;;;;;5066734;28;20032;-63
2020/12/24 23:48:13;;;;;;;18.55;6.00;;;4.40;99.90;;;;;;5067650;28;20025;-63
2020/12/24 23:50:41;;;;;;;35.40;18.27;;;4.50;99.90;;;;;;5066159;28;20484;-63
2020/12/24 23:53:07;;;;;;;61.53;36.53;;;4.60;99.90;;;;;;5066530;28;20098;-63
2020/12/24 23:55:32;;;;;;;21.40;7.93;;;4.50;99.90;;;;;;5068034;28;20024;-64
2020/12/24 23:57:58;;;;;;;16.98;5.45;;;4.40;99.90;;;;;;5065799;28;20201;-63
